Time;durP1;ratioP1;P1;durP2;ratioP2;P2;SDS_P1;SDS_P2;PMS_P1;PMS_P2;Temp;Humidity;BMP_temperature;BMP_pressure;BME280_temperature;BME280_humidity;BME280_pressure;Samples;Min_cycle;Max_cycle;Signal;HPM_P1;HPM_P2
2021/01/16 00:00:52;;;;;;;4.55;2.10;;;-1.50;99.90;;;;;;4968176;28;20034;-73
2021/01/16 00:03:18;;;;;;;4.45;2.63;;;-1.50;99.90;;;;;;4949677;28;20048;-73
2021/01/16 00:05:44;;;;;;;4.88;2.35;;;-1.50;99.90;;;;;;4949734;28;20034;-73
2021/01/16 00:08:21;;;;;;;5.10;2.30;;;-1.50;99.90;;;;;;4955841;28;20031;-73
2021/01/16 00:10:50;;;;;;;6.68;2.90;;;-1.60;99.90;;;;;;4952622;28;20043;-74
2021/01/16 00:13:18;;;;;;;4.47;2.63;;;-1.60;99.90;;;;;;4952921;28;20042;-74
2021/01/16 00:15:44;;;;;;;6.32;2.85;;;-1.50;99.90;;;;;;4951614;28;20888;-73
2021/01/16 00:18:14;;;;;;;5.05;2.80;;;-1.50;99.90;;;;;;4952910;28;20051;-73
2021/01/16 00:20:42;;;;;;;6.60;2.63;;;-1.50;99.90;;;;;;4951103;28;20884;-73
2021/01/16 00:23:09;;;;;;;5.00;3.20;;;-1.50;99.90;;;;;;4951261;28;20035;-73
2021/01/16 00:25:35;;;;;;;5.32;2.83;;;-1.60;99.90;;;;;;4949253;28;20343;-74
2021/01/16 00:28:01;;;;;;;4.05;2.72;;;-1.60;99.90;;;;;;4963609;28;20050;-73
2021/01/16 00:30:30;;;;;;;6.10;2.85;;;-1.60;99.90;;;;;;4949029;28;20062;-73
2021/01/16 00:32:57;;;;;;;5.13;2.78;;;-1.70;99.90;;;;;;4952981;28;20051;-73
2021/01/16 00:35:24;;;;;;;6.10;2.65;;;-1.80;99.90;;;;;;4948179;28;20050;-74
2021/01/16 00:37:51;;;;;;;5.70;2.65;;;-1.70;99.90;;;;;;4948358;28;20035;-73
2021/01/16 00:40:22;;;;;;;5.28;2.92;;;-1.70;99.90;;;;;;4948071;28;20631;-74
2021/01/16 00:42:54;;;;;;;4.50;2.92;;;-1.70;99.90;;;;;;4961345;28;20043;-74
2021/01/16 00:45:20;;;;;;;3.85;2.60;;;-1.60;99.90;;;;;;4951117;28;20625;-73
2021/01/16 00:47:47;;;;;;;5.50;2.88;;;-1.70;99.90;;;;;;4952075;28;20027;-73
2021/01/16 00:50:16;;;;;;;4.90;2.70;;;-1.70;99.90;;;;;;4967657;28;20045;-73
2021/01/16 00:52:56;;;;;;;5.47;3.00;;;-1.60;99.90;;;;;;4949456;28;20027;-73
2021/01/16 00:55:25;;;;;;;5.55;3.08;;;-1.60;99.90;;;;;;4965528;28;20707;-74
2021/01/16 00:57:52;;;;;;;4.50;2.75;;;-1.60;99.90;;;;;;4951332;28;20729;-74
2021/01/16 01:00:25;;;;;;;5.40;2.85;;;-1.70;99.90;;;;;;4950213;28;20034;-74
2021/01/16 01:02:52;;;;;;;4.80;2.72;;;-1.70;99.90;;;;;;4967600;28;20502;-73
2021/01/16 01:05:21;;;;;;;5.05;3.10;;;-1.70;99.90;;;;;;4946078;28;20082;-74
2021/01/16 01:07:48;;;;;;;6.90;2.70;;;-1.60;99.90;;;;;;4948004;28;20066;-74
2021/01/16 01:10:26;;;;;;;7.28;2.95;;;-1.50;99.90;;;;;;4947388;28;20138;-74
2021/01/16 01:12:52;;;;;;;4.03;2.60;;;-1.50;99.90;;;;;;4965497;28;20035;-74
2021/01/16 01:15:18;;;;;;;5.88;3.38;;;-1.50;99.90;;;;;;4947794;28;20525;-73
2021/01/16 01:17:50;;;;;;;6.70;2.95;;;-1.50;99.90;;;;;;4951668;28;20077;-75
2021/01/16 01:20:15;;;;;;;6.57;3.13;;;-1.40;99.90;;;;;;4964814;28;20031;-75
2021/01/16 01:22:41;;;;;;;5.00;2.88;;;-1.40;99.90;;;;;;4948105;28;20488;-75
2021/01/16 01:25:07;;;;;;;7.88;3.13;;;-1.40;99.90;;;;;;4950504;28;20075;-75
2021/01/16 01:27:33;;;;;;;4.30;2.67;;;-1.30;99.90;;;;;;4964192;28;20035;-75
2021/01/16 01:29:59;;;;;;;5.65;3.30;;;-1.30;99.90;;;;;;4951023;28;20038;-75
2021/01/16 01:32:25;;;;;;;7.55;3.00;;;-1.30;99.90;;;;;;4961540;28;20038;-75
2021/01/16 01:34:51;;;;;;;7.72;3.50;;;-1.20;99.90;;;;;;4961191;28;20039;-75
2021/01/16 01:37:17;;;;;;;5.55;3.03;;;-1.20;99.90;;;;;;4954398;28;20539;-74
2021/01/16 01:39:42;;;;;;;5.22;3.08;;;-1.30;99.90;;;;;;4948472;28;20065;-75
2021/01/16 01:42:14;;;;;;;6.20;3.38;;;-1.30;99.90;;;;;;4947397;28;20086;-75
2021/01/16 01:44:40;;;;;;;5.35;3.13;;;-1.30;99.90;;;;;;4957696;28;20034;-75
2021/01/16 01:47:06;;;;;;;8.63;3.65;;;-1.40;99.90;;;;;;4960450;28;20038;-74
2021/01/16 01:49:32;;;;;;;8.00;3.35;;;-1.30;99.90;;;;;;4951636;28;20050;-75
2021/01/16 01:51:59;;;;;;;7.55;3.58;;;-1.30;99.90;;;;;;4950725;28;20423;-75
2021/01/16 01:54:25;;;;;;;5.28;3.08;;;-1.40;99.90;;;;;;4951586;28;20049;-75
2021/01/16 01:56:54;;;;;;;6.30;3.35;;;-1.40;99.90;;;;;;4969958;28;20039;-74
2021/01/16 01:59:23;;;;;;;4.40;2.88;;;-1.40;99.90;;;;;;4952984;28;20043;-75
2021/01/16 02:01:50;;;;;;;5.88;3.15;;;-1.30;99.90;;;;;;4969710;28;20453;-75
2021/01/16 02:04:22;;;;;;;6.53;3.45;;;-1.40;99.90;;;;;;4957104;28;20088;-75
2021/01/16 02:06:48;;;;;;;5.88;3.55;;;-1.40;99.90;;;;;;4952539;28;20074;-74
2021/01/16 02:09:13;;;;;;;6.43;3.53;;;-1.30;99.90;;;;;;4970050;28;20871;-74
2021/01/16 02:11:40;;;;;;;5.82;3.53;;;-1.30;99.90;;;;;;4953670;28;20685;-74
2021/01/16 02:14:05;;;;;;;6.25;3.65;;;-1.40;99.90;;;;;;4949910;28;20045;-74
2021/01/16 02:16:42;;;;;;;6.38;3.40;;;-1.40;99.90;;;;;;4965558;28;20045;-74
2021/01/16 02:19:08;;;;;;;7.40;4.22;;;-1.40;99.90;;;;;;4959507;28;20062;-74
2021/01/16 02:21:37;;;;;;;6.38;3.50;;;-1.40;99.90;;;;;;4960726;28;20034;-74
2021/01/16 02:24:19;;;;;;;6.22;3.50;;;-1.30;99.90;;;;;;4964594;28;20515;-74
2021/01/16 02:27:06;;;;;;;9.23;3.35;;;-1.40;99.90;;;;;;4950571;28;20089;-75
2021/01/16 02:29:34;;;;;;;7.90;3.50;;;-1.40;99.90;;;;;;4953792;28;20030;-75
2021/01/16 02:32:05;;;;;;;6.07;3.65;;;-1.40;99.90;;;;;;4969130;28;20049;-74
2021/01/16 02:34:36;;;;;;;7.30;3.83;;;-1.40;99.90;;;;;;4950868;28;20035;-74
2021/01/16 02:37:24;;;;;;;6.80;3.50;;;-1.40;99.90;;;;;;4969220;28;20038;-74
2021/01/16 02:40:02;;;;;;;7.68;3.80;;;-1.40;99.90;;;;;;4951629;28;20149;-74
2021/01/16 02:42:49;;;;;;;7.63;3.95;;;-1.40;99.90;;;;;;4951623;28;20043;-75
2021/01/16 02:45:20;;;;;;;8.50;4.13;;;-1.50;99.90;;;;;;4952388;28;20035;-74
2021/01/16 02:48:13;;;;;;;6.90;3.78;;;-1.50;99.90;;;;;;4954927;28;20062;-73
2021/01/16 02:50:44;;;;;;;6.78;3.90;;;-1.60;99.90;;;;;;4953322;28;20047;-76
2021/01/16 02:53:11;;;;;;;10.40;3.60;;;-1.60;99.90;;;;;;4947681;28;20043;-74
2021/01/16 02:55:40;;;;;;;6.75;3.78;;;-1.60;99.90;;;;;;4965464;28;20043;-74
2021/01/16 02:58:07;;;;;;;7.78;4.15;;;-1.60;99.90;;;;;;4958953;28;20093;-73
2021/01/16 03:00:33;;;;;;;7.22;4.10;;;-1.60;99.90;;;;;;4949171;28;20118;-74
2021/01/16 03:02:59;;;;;;;8.13;4.13;;;-1.60;99.90;;;;;;4969024;28;20574;-74
2021/01/16 03:05:24;;;;;;;9.10;4.30;;;-1.50;99.90;;;;;;4950206;28;20035;-74
2021/01/16 03:07:51;;;;;;;7.07;3.88;;;-1.50;99.90;;;;;;4953030;28;20593;-75
2021/01/16 03:10:18;;;;;;;8.73;3.90;;;-1.50;99.90;;;;;;4954391;28;20104;-75
2021/01/16 03:12:44;;;;;;;8.02;4.00;;;-1.50;99.90;;;;;;4950364;28;20658;-74
2021/01/16 03:15:19;;;;;;;8.90;4.25;;;-1.50;99.90;;;;;;4953270;28;20037;-74
2021/01/16 03:17:57;;;;;;;12.13;4.20;;;-1.50;99.90;;;;;;4948113;28;20126;-75
2021/01/16 03:20:29;;;;;;;10.85;4.32;;;-1.40;99.90;;;;;;4949915;28;20066;-74
2021/01/16 03:23:01;;;;;;;8.88;4.28;;;-1.50;99.90;;;;;;4948180;28;20117;-75
2021/01/16 03:25:31;;;;;;;6.70;4.00;;;-1.60;99.90;;;;;;4964028;28;20070;-74
2021/01/16 03:27:58;;;;;;;8.73;4.40;;;-1.50;99.90;;;;;;4966767;28;20050;-75
2021/01/16 03:30:25;;;;;;;9.65;4.47;;;-1.50;99.90;;;;;;4952769;28;20555;-74
2021/01/16 03:32:51;;;;;;;7.22;4.20;;;-1.50;99.90;;;;;;4951505;28;20066;-75
2021/01/16 03:35:22;;;;;;;8.20;4.45;;;-1.40;99.90;;;;;;4955443;28;20205;-74
2021/01/16 03:37:48;;;;;;;8.45;4.28;;;-1.40;99.90;;;;;;4952376;28;20039;-74
2021/01/16 03:40:15;;;;;;;9.20;4.80;;;-1.40;99.90;;;;;;4968340;28;20049;-75
2021/01/16 03:42:41;;;;;;;8.00;4.50;;;-1.30;99.90;;;;;;4950157;28;20042;-75
2021/01/16 03:45:10;;;;;;;13.80;4.07;;;-1.40;99.90;;;;;;4944001;28;20545;-75
2021/01/16 03:47:36;;;;;;;11.55;4.57;;;-1.40;99.90;;;;;;4950012;28;20035;-72
2021/01/16 03:50:03;;;;;;;8.65;4.35;;;-1.40;99.90;;;;;;4967783;28;20038;-72
2021/01/16 03:52:35;;;;;;;9.70;4.43;;;-1.40;99.90;;;;;;4953306;28;20026;-72
2021/01/16 03:55:01;;;;;;;9.63;4.03;;;-1.30;99.90;;;;;;4952429;28;20073;-73
2021/01/16 03:57:28;;;;;;;8.65;4.38;;;-1.30;99.90;;;;;;4950965;28;20035;-72
2021/01/16 03:59:54;;;;;;;9.55;4.50;;;-1.30;99.90;;;;;;4971055;28;20045;-72
2021/01/16 04:02:21;;;;;;;9.82;4.57;;;-1.30;99.90;;;;;;4952291;28;20105;-73
2021/01/16 04:04:48;;;;;;;9.10;4.30;;;-1.30;99.90;;;;;;4951551;28;20027;-72
2021/01/16 04:07:14;;;;;;;10.95;4.80;;;-1.30;99.90;;;;;;4967254;28;20046;-73
2021/01/16 04:09:44;;;;;;;10.30;4.38;;;-1.30;99.90;;;;;;4951307;28;20031;-72
2021/01/16 04:12:10;;;;;;;9.02;4.32;;;-1.30;99.90;;;;;;4967907;28;20127;-72
2021/01/16 04:14:36;;;;;;;12.50;5.05;;;-1.30;99.90;;;;;;4949285;28;20039;-72
2021/01/16 04:17:06;;;;;;;8.05;4.63;;;-1.30;99.90;;;;;;4951306;28;20070;-72
2021/01/16 04:19:32;;;;;;;14.32;5.18;;;-1.20;99.90;;;;;;4952001;28;20039;-72
2021/01/16 04:21:58;;;;;;;11.07;4.75;;;-1.20;99.90;;;;;;4962200;28;20035;-72
2021/01/16 04:24:23;;;;;;;8.85;4.88;;;-1.30;99.90;;;;;;4957215;28;20035;-72
2021/01/16 04:26:49;;;;;;;10.75;5.47;;;-1.30;99.90;;;;;;4947538;28;20031;-72
2021/01/16 04:29:15;;;;;;;7.80;4.40;;;-1.20;99.90;;;;;;4938252;28;20039;-72
2021/01/16 04:31:41;;;;;;;12.32;5.40;;;-1.20;99.90;;;;;;4967458;28;20486;-72
2021/01/16 04:34:07;;;;;;;9.90;4.53;;;-1.20;99.90;;;;;;4951919;28;20048;-72
2021/01/16 04:36:32;;;;;;;10.65;4.90;;;-1.20;99.90;;;;;;4956889;28;20388;-72
2021/01/16 04:38:58;;;;;;;9.45;4.78;;;-1.30;99.90;;;;;;4952114;28;20122;-73
2021/01/16 04:41:25;;;;;;;8.93;4.75;;;-1.30;99.90;;;;;;4948950;28;20027;-72
2021/01/16 04:43:52;;;;;;;10.40;5.18;;;-1.20;99.90;;;;;;4951490;28;20138;-72
2021/01/16 04:46:19;;;;;;;11.45;4.82;;;-1.20;99.90;;;;;;4950873;28;20069;-72
2021/01/16 04:48:55;;;;;;;13.25;5.40;;;-1.20;99.90;;;;;;4956741;28;20035;-72
2021/01/16 04:51:23;;;;;;;10.35;5.25;;;-1.20;99.90;;;;;;4965651;28;20118;-72
2021/01/16 04:53:49;;;;;;;10.95;5.28;;;-1.10;99.90;;;;;;4951771;28;20035;-72
2021/01/16 04:56:16;;;;;;;10.45;5.28;;;-1.10;99.90;;;;;;4951216;28;20085;-73
2021/01/16 04:58:42;;;;;;;10.85;5.15;;;-1.10;99.90;;;;;;4950641;28;20035;-73
2021/01/16 05:01:09;;;;;;;11.98;5.43;;;-1.10;99.90;;;;;;4953145;28;20098;-73
2021/01/16 05:03:59;;;;;;;10.00;4.95;;;-1.10;99.90;;;;;;4966415;28;20037;-73
2021/01/16 05:06:27;;;;;;;9.95;5.13;;;-1.10;99.90;;;;;;4946473;28;20035;-72
2021/01/16 05:08:58;;;;;;;9.85;5.07;;;-1.10;99.90;;;;;;4951750;28;20035;-73
2021/01/16 05:11:23;;;;;;;11.02;5.07;;;-1.10;99.90;;;;;;4965183;28;20139;-72
2021/01/16 05:14:14;;;;;;;13.07;5.13;;;-1.00;99.90;;;;;;4950040;28;20035;-73
2021/01/16 05:16:56;;;;;;;12.23;5.43;;;-1.00;99.90;;;;;;4964464;28;20039;-73
2021/01/16 05:19:25;;;;;;;14.88;5.72;;;-1.00;99.90;;;;;;4950351;28;20145;-72
2021/01/16 05:21:52;;;;;;;11.50;5.68;;;-1.00;99.90;;;;;;4965690;28;20031;-73
2021/01/16 05:24:18;;;;;;;17.45;7.78;;;-1.00;99.90;;;;;;4946514;28;20077;-72
2021/01/16 05:26:53;;;;;;;15.25;7.25;;;-1.00;99.90;;;;;;4947560;28;20035;-72
2021/01/16 05:29:21;;;;;;;11.25;6.25;;;-0.90;99.90;;;;;;4961997;28;20043;-72
2021/01/16 05:31:52;;;;;;;11.85;5.78;;;-0.90;99.90;;;;;;4948213;28;20030;-73
2021/01/16 05:34:18;;;;;;;10.23;5.70;;;-1.00;99.90;;;;;;4947874;28;20511;-72
2021/01/16 05:36:48;;;;;;;11.77;5.93;;;-0.90;99.90;;;;;;4966762;28;20031;-73
2021/01/16 05:39:15;;;;;;;12.77;5.60;;;-0.80;99.90;;;;;;4952269;28;20074;-72
2021/01/16 05:41:42;;;;;;;17.10;6.93;;;-0.80;99.90;;;;;;4962908;28;20078;-72
2021/01/16 05:44:08;;;;;;;10.00;5.78;;;-0.90;99.90;;;;;;4961219;28;20407;-72
2021/01/16 05:46:34;;;;;;;13.45;5.90;;;-0.90;99.90;;;;;;4948682;28;20038;-72
2021/01/16 05:49:01;;;;;;;11.07;5.70;;;-0.90;99.90;;;;;;4946129;28;20038;-72
2021/01/16 05:51:28;;;;;;;13.40;5.72;;;-0.90;99.90;;;;;;4954719;28;20085;-72
2021/01/16 05:53:55;;;;;;;12.70;5.18;;;-0.90;99.90;;;;;;4946150;28;20415;-73
2021/01/16 05:56:21;;;;;;;10.15;5.40;;;-0.80;99.90;;;;;;4964309;28;20085;-72
2021/01/16 05:58:50;;;;;;;10.70;5.90;;;-0.80;99.90;;;;;;4965449;28;20032;-73
2021/01/16 06:01:23;;;;;;;9.15;5.47;;;-0.90;99.90;;;;;;4954375;28;20042;-73
2021/01/16 06:03:55;;;;;;;12.90;6.22;;;-0.90;99.90;;;;;;4950199;28;20070;-73
2021/01/16 06:06:22;;;;;;;10.35;5.43;;;-0.80;99.90;;;;;;4946711;28;20039;-73
2021/01/16 06:08:49;;;;;;;9.70;5.57;;;-0.80;99.90;;;;;;4947610;28;20487;-73
2021/01/16 06:11:16;;;;;;;13.10;6.30;;;-0.80;99.90;;;;;;4945570;28;20140;-73
2021/01/16 06:13:42;;;;;;;12.13;6.13;;;-0.80;99.90;;;;;;4956455;28;20037;-73
2021/01/16 06:16:14;;;;;;;12.43;6.22;;;-0.90;99.90;;;;;;4954342;28;20066;-73
2021/01/16 06:18:54;;;;;;;11.82;6.13;;;-0.90;99.90;;;;;;4949443;28;20067;-73
2021/01/16 06:21:26;;;;;;;12.23;5.55;;;-0.90;99.90;;;;;;4951673;28;20525;-73
2021/01/16 06:23:54;;;;;;;12.90;6.75;;;-0.90;99.90;;;;;;4953708;28;20037;-73
2021/01/16 06:26:21;;;;;;;13.07;6.25;;;-1.00;99.90;;;;;;4954273;28;20038;-74
2021/01/16 06:29:01;;;;;;;12.45;7.03;;;-1.00;99.90;;;;;;4949085;28;20202;-73
2021/01/16 06:31:32;;;;;;;11.60;6.45;;;-1.00;99.90;;;;;;4951285;28;20031;-73
2021/01/16 06:34:06;;;;;;;12.57;7.03;;;-1.00;99.90;;;;;;4951631;28;20093;-73
2021/01/16 06:36:34;;;;;;;16.05;7.60;;;-1.00;99.90;;;;;;4950890;28;20032;-73
2021/01/16 06:39:05;;;;;;;15.80;7.07;;;-1.10;99.90;;;;;;4950785;28;20476;-73
2021/01/16 06:41:38;;;;;;;13.73;6.85;;;-1.10;99.90;;;;;;4954555;28;20042;-73
2021/01/16 06:44:15;;;;;;;15.80;7.35;;;-1.10;99.90;;;;;;4972643;28;20085;-73
2021/01/16 06:46:50;;;;;;;13.20;6.50;;;-1.10;99.90;;;;;;4952968;28;20567;-73
2021/01/16 06:49:30;;;;;;;13.60;7.47;;;-1.00;99.90;;;;;;4949877;28;20069;-74
2021/01/16 06:51:58;;;;;;;16.83;8.38;;;-1.00;99.90;;;;;;4952531;28;20138;-74
2021/01/16 06:54:29;;;;;;;13.40;7.22;;;-1.00;99.90;;;;;;4960102;28;20061;-75
2021/01/16 06:57:02;;;;;;;17.17;7.05;;;-1.00;99.90;;;;;;4957175;28;20038;-73
2021/01/16 06:59:29;;;;;;;14.82;6.97;;;-1.00;99.90;;;;;;4958343;28;20038;-73
2021/01/16 07:01:56;;;;;;;14.80;6.95;;;-1.00;99.90;;;;;;4958725;28;20065;-75
2021/01/16 07:04:23;;;;;;;15.00;8.07;;;-1.00;99.90;;;;;;4958620;28;20031;-74
2021/01/16 07:06:50;;;;;;;14.10;7.47;;;-1.00;99.90;;;;;;4956115;28;20038;-75
2021/01/16 07:09:20;;;;;;;17.98;9.20;;;-1.10;99.90;;;;;;4952530;28;20020;-74
2021/01/16 07:11:48;;;;;;;16.85;8.43;;;-1.00;99.90;;;;;;4957923;28;20122;-73
2021/01/16 07:14:14;;;;;;;15.77;7.35;;;-1.00;99.90;;;;;;4947767;28;20113;-73
2021/01/16 07:16:45;;;;;;;18.35;8.30;;;-0.90;99.90;;;;;;4959749;28;20041;-73
2021/01/16 07:19:18;;;;;;;15.40;7.70;;;-0.90;99.90;;;;;;4953954;28;20043;-73
2021/01/16 07:21:44;;;;;;;17.45;7.88;;;-1.00;99.90;;;;;;4957049;28;20073;-73
2021/01/16 07:24:11;;;;;;;15.25;7.70;;;-0.90;99.90;;;;;;4972890;28;20793;-73
2021/01/16 07:26:38;;;;;;;15.80;7.45;;;-1.00;99.90;;;;;;4950433;28;20121;-73
2021/01/16 07:29:08;;;;;;;15.32;7.43;;;-1.00;99.90;;;;;;4947500;28;20573;-73
2021/01/16 07:31:40;;;;;;;15.68;7.57;;;-1.00;99.90;;;;;;4952525;28;20027;-75
2021/01/16 07:34:07;;;;;;;15.75;7.32;;;-1.00;99.90;;;;;;4957953;28;20483;-74
2021/01/16 07:36:34;;;;;;;19.70;7.57;;;-1.00;99.90;;;;;;4955550;28;20073;-73
2021/01/16 07:39:06;;;;;;;15.02;7.45;;;-1.00;99.90;;;;;;4959761;28;20034;-72
2021/01/16 07:41:33;;;;;;;15.05;7.32;;;-1.00;99.90;;;;;;4954955;28;20034;-72
2021/01/16 07:44:11;;;;;;;16.23;7.85;;;-1.00;99.90;;;;;;4955479;28;20110;-72
2021/01/16 07:46:39;;;;;;;16.63;7.65;;;-1.00;99.90;;;;;;4952282;28;20626;-72
2021/01/16 07:49:07;;;;;;;16.17;8.55;;;-1.00;99.90;;;;;;4951493;28;20035;-73
2021/01/16 07:51:36;;;;;;;14.73;7.50;;;-1.00;99.90;;;;;;4954461;28;20458;-72
2021/01/16 07:54:08;;;;;;;16.13;7.63;;;-1.00;99.90;;;;;;4960210;28;20644;-72
2021/01/16 07:56:42;;;;;;;14.88;7.57;;;-0.90;99.90;;;;;;4957572;28;20533;-74
2021/01/16 07:59:22;;;;;;;18.88;8.00;;;-1.00;99.90;;;;;;4952910;28;20035;-72
2021/01/16 08:02:19;;;;;;;16.15;8.18;;;-1.00;99.90;;;;;;4955561;28;20049;-73
2021/01/16 08:04:51;;;;;;;15.65;8.32;;;-1.00;99.90;;;;;;4967173;28;20034;-72
2021/01/16 08:07:43;;;;;;;17.30;8.80;;;-1.00;99.90;;;;;;4948286;28;20039;-72
2021/01/16 08:10:18;;;;;;;18.20;8.70;;;-1.00;99.90;;;;;;4964198;28;20078;-72
2021/01/16 08:12:47;;;;;;;15.40;8.30;;;-1.00;99.90;;;;;;4953450;28;20109;-74
2021/01/16 08:15:16;;;;;;;15.55;7.32;;;-1.00;99.90;;;;;;4947622;28;20423;-74
2021/01/16 08:17:44;;;;;;;20.23;9.32;;;-1.00;99.90;;;;;;4960430;28;20507;-73
2021/01/16 08:20:17;;;;;;;18.73;9.40;;;-1.00;99.90;;;;;;4957885;28;20652;-73
2021/01/16 08:22:51;;;;;;;17.45;8.23;;;-0.90;99.90;;;;;;4947971;28;20077;-74
2021/01/16 08:25:21;;;;;;;16.13;8.88;;;-1.00;99.90;;;;;;4967659;28;20501;-73
2021/01/16 08:27:49;;;;;;;14.15;7.78;;;-1.00;99.90;;;;;;4962910;28;20807;-74
2021/01/16 08:30:18;;;;;;;17.38;8.15;;;-1.00;99.90;;;;;;4956434;28;20054;-74
2021/01/16 08:32:58;;;;;;;18.30;8.52;;;-1.00;99.90;;;;;;4961625;28;20799;-70
2021/01/16 08:35:30;;;;;;;15.30;7.90;;;-0.90;99.90;;;;;;4968633;28;20551;-74
2021/01/16 08:38:15;;;;;;;15.10;7.72;;;-0.90;99.90;;;;;;4953558;28;20034;-76
2021/01/16 08:40:42;;;;;;;16.60;7.82;;;-0.80;99.90;;;;;;4969057;28;20050;-74
2021/01/16 08:43:08;;;;;;;15.07;8.13;;;-0.80;99.90;;;;;;4954154;28;20717;-73
2021/01/16 08:45:34;;;;;;;16.55;8.73;;;-0.80;99.90;;;;;;4949086;28;20118;-74
2021/01/16 08:48:01;;;;;;;16.35;7.85;;;-0.80;99.90;;;;;;4958070;28;20039;-75
2021/01/16 08:50:34;;;;;;;14.18;7.32;;;-0.80;99.90;;;;;;4952747;28;20035;-75
2021/01/16 08:53:19;;;;;;;18.33;8.45;;;-0.80;99.90;;;;;;4954310;28;20689;-67
2021/01/16 08:55:44;;;;;;;16.60;8.43;;;-0.80;99.90;;;;;;4955957;28;20410;-73
2021/01/16 08:58:10;;;;;;;15.93;8.43;;;-0.80;99.90;;;;;;4958039;28;20037;-73
2021/01/16 09:00:37;;;;;;;14.40;7.97;;;-0.70;99.90;;;;;;4949158;28;20039;-75
2021/01/16 09:03:13;;;;;;;15.73;8.13;;;-0.70;99.90;;;;;;4950198;28;20847;-72
2021/01/16 09:05:40;;;;;;;13.93;7.50;;;-0.70;99.90;;;;;;4951652;28;20621;-72
2021/01/16 09:08:23;;;;;;;15.43;8.23;;;-0.60;99.90;;;;;;4954960;28;20086;-72
2021/01/16 09:10:54;;;;;;;16.70;8.65;;;-0.60;99.90;;;;;;4951452;28;20038;-72
2021/01/16 09:13:23;;;;;;;19.75;9.02;;;-0.60;99.90;;;;;;4951807;28;20042;-73
2021/01/16 09:15:49;;;;;;;16.33;9.35;;;-0.60;99.90;;;;;;4957502;28;20105;-79
2021/01/16 09:18:15;;;;;;;15.82;8.23;;;-0.60;99.90;;;;;;4952678;28;20519;-73
2021/01/16 09:20:45;;;;;;;15.05;8.18;;;-0.70;99.90;;;;;;4958014;28;20038;-75
2021/01/16 09:23:31;;;;;;;18.02;8.38;;;-0.60;99.90;;;;;;4952305;28;20397;-73
2021/01/16 09:26:12;;;;;;;19.40;8.43;;;-0.60;99.90;;;;;;4960440;28;20039;-73
2021/01/16 09:28:41;;;;;;;16.95;8.10;;;-0.60;99.90;;;;;;4953976;28;20046;-73
2021/01/16 09:31:29;;;;;;;17.10;8.45;;;-0.50;99.90;;;;;;4956686;28;20038;-74
2021/01/16 09:34:00;;;;;;;16.98;8.57;;;-0.60;99.90;;;;;;4958008;28;20065;-74
2021/01/16 09:36:42;;;;;;;17.88;8.43;;;-0.60;99.90;;;;;;4950670;28;20154;-73
2021/01/16 09:39:30;;;;;;;15.68;7.68;;;-0.50;99.90;;;;;;4947250;28;20399;-75
2021/01/16 09:42:00;;;;;;;36.60;15.35;;;-0.50;99.90;;;;;;4948167;28;20023;-73
2021/01/16 09:44:44;;;;;;;17.48;8.25;;;-0.40;99.90;;;;;;4955154;28;20480;-74
2021/01/16 09:47:25;;;;;;;15.50;8.25;;;-0.40;99.90;;;;;;4950017;28;20031;-73
2021/01/16 09:49:57;;;;;;;17.40;8.07;;;-0.40;99.90;;;;;;4956598;28;20045;-72
2021/01/16 09:52:23;;;;;;;15.00;7.57;;;-0.30;99.90;;;;;;4953124;28;20182;-73
2021/01/16 09:54:50;;;;;;;16.92;7.82;;;-0.40;99.90;;;;;;4954917;28;20039;-73
2021/01/16 09:57:33;;;;;;;15.75;8.63;;;-0.20;99.90;;;;;;4953915;28;21065;-73
2021/01/16 10:00:10;;;;;;;17.08;8.07;;;-0.10;99.90;;;;;;4949929;28;20043;-73
2021/01/16 10:02:40;;;;;;;17.05;8.27;;;-0.10;99.90;;;;;;4955617;28;20047;-74
2021/01/16 10:05:32;;;;;;;16.90;8.57;;;0.00;99.90;;;;;;4954070;28;20049;-72
2021/01/16 10:07:58;;;;;;;18.60;8.50;;;0.00;99.90;;;;;;4955533;28;20464;-76
2021/01/16 10:10:25;;;;;;;13.75;7.18;;;0.10;99.90;;;;;;4951452;28;20104;-73
2021/01/16 10:12:58;;;;;;;13.05;7.60;;;0.10;99.90;;;;;;4951522;28;20035;-72
2021/01/16 10:15:27;;;;;;;14.80;7.93;;;0.20;99.90;;;;;;4967880;28;20058;-73
2021/01/16 10:17:55;;;;;;;13.40;7.07;;;0.20;99.90;;;;;;4956796;28;20074;-74
2021/01/16 10:20:30;;;;;;;13.18;7.57;;;0.20;99.90;;;;;;4970676;28;20830;-72
2021/01/16 10:22:56;;;;;;;10.95;5.65;;;0.20;99.90;;;;;;4958098;28;20138;-75
2021/01/16 10:25:31;;;;;;;16.20;7.90;;;0.10;99.90;;;;;;4969742;28;20154;-75
2021/01/16 10:27:56;;;;;;;12.70;7.25;;;0.30;99.90;;;;;;4957091;28;20109;-75
2021/01/16 10:30:32;;;;;;;18.20;8.30;;;0.40;99.90;;;;;;4948034;28;20570;-74
2021/01/16 10:32:59;;;;;;;14.82;8.15;;;0.40;99.90;;;;;;4960705;28;20655;-79
2021/01/16 10:35:29;;;;;;;14.25;7.25;;;0.40;99.90;;;;;;4954657;28;20039;-76
2021/01/16 10:38:00;;;;;;;13.23;7.30;;;0.30;99.90;;;;;;4968069;28;20106;-75
2021/01/16 10:40:29;;;;;;;14.73;7.75;;;0.20;99.90;;;;;;4951333;28;20602;-72
2021/01/16 10:42:57;;;;;;;13.55;7.25;;;0.20;99.90;;;;;;4953695;28;20026;-73
2021/01/16 10:45:29;;;;;;;12.27;6.63;;;0.20;99.90;;;;;;4956684;28;20059;-72
2021/01/16 10:47:56;;;;;;;12.52;6.93;;;0.10;99.90;;;;;;4951739;28;20035;-72
2021/01/16 10:50:30;;;;;;;13.07;6.70;;;0.10;99.90;;;;;;4972744;28;20042;-72
2021/01/16 10:53:06;;;;;;;13.80;7.13;;;0.00;99.90;;;;;;4960086;28;20952;-72
2021/01/16 10:55:55;;;;;;;15.32;7.50;;;-0.20;99.90;;;;;;4950109;28;20202;-72
2021/01/16 10:58:27;;;;;;;19.15;7.03;;;-0.20;99.90;;;;;;4971601;28;20031;-76
2021/01/16 11:00:58;;;;;;;15.23;7.55;;;-0.10;99.90;;;;;;4946573;28;20526;-74
2021/01/16 11:03:33;;;;;;;13.38;7.25;;;-0.20;99.90;;;;;;4950461;28;20554;-73
2021/01/16 11:06:12;;;;;;;16.08;7.55;;;-0.20;99.90;;;;;;4960965;28;20027;-73
2021/01/16 11:08:42;;;;;;;12.18;6.88;;;-0.20;99.90;;;;;;4961922;28;20031;-73
2021/01/16 11:11:26;;;;;;;14.05;6.78;;;-0.20;99.90;;;;;;4960741;28;20050;-73
2021/01/16 11:13:53;;;;;;;13.13;6.43;;;-0.20;99.90;;;;;;4961420;28;20214;-73
2021/01/16 11:16:20;;;;;;;16.27;6.63;;;-0.20;99.90;;;;;;4953312;28;20046;-73
2021/01/16 11:18:47;;;;;;;13.07;6.85;;;-0.20;99.90;;;;;;4961163;28;20113;-74
2021/01/16 11:21:35;;;;;;;15.15;6.35;;;-0.10;99.90;;;;;;4955376;28;20074;-72
2021/01/16 11:24:26;;;;;;;16.17;8.07;;;-0.10;99.90;;;;;;4955696;28;20031;-72
2021/01/16 11:26:55;;;;;;;12.82;6.68;;;-0.10;99.90;;;;;;4958510;28;20818;-73
2021/01/16 11:29:34;;;;;;;16.40;7.53;;;-0.10;99.90;;;;;;4956432;28;20035;-73
2021/01/16 11:32:17;;;;;;;12.77;7.30;;;0.10;99.90;;;;;;4962482;28;20547;-72
2021/01/16 11:35:06;;;;;;;18.83;7.10;;;0.20;99.90;;;;;;4948663;28;20867;-71
2021/01/16 11:37:49;;;;;;;16.73;8.25;;;0.20;99.90;;;;;;4965630;28;20822;-71
2021/01/16 11:40:45;;;;;;;13.85;7.80;;;0.20;99.90;;;;;;4960499;28;20516;-72
2021/01/16 11:43:11;;;;;;;;;;;0.20;99.90;;;;;;4968228;28;20049;-72
2021/01/16 11:45:37;;;;;;;13.55;6.68;;;0.20;99.90;;;;;;4950837;28;19914;-72
2021/01/16 11:48:04;;;;;;;14.50;8.75;;;0.10;99.90;;;;;;4951914;28;20031;-72
2021/01/16 11:50:36;;;;;;;12.73;6.55;;;0.30;99.90;;;;;;4959672;28;20141;-72
2021/01/16 11:53:09;;;;;;;13.65;7.38;;;0.40;99.90;;;;;;4951810;28;20412;-72
2021/01/16 11:55:36;;;;;;;15.10;7.45;;;0.30;99.90;;;;;;4948362;28;20043;-72
2021/01/16 11:58:02;;;;;;;12.45;6.40;;;0.40;99.90;;;;;;4960252;28;20034;-72
2021/01/16 12:00:29;;;;;;;12.15;6.57;;;0.40;99.90;;;;;;4970335;28;20043;-72
2021/01/16 12:02:56;;;;;;;14.88;8.40;;;0.40;99.90;;;;;;4958355;28;20487;-71
2021/01/16 12:05:23;;;;;;;15.65;7.38;;;0.40;99.90;;;;;;4951309;28;20034;-72
2021/01/16 12:07:56;;;;;;;14.00;7.22;;;0.40;99.90;;;;;;4952162;28;20047;-73
2021/01/16 12:10:24;;;;;;;13.85;6.95;;;0.40;99.90;;;;;;4947608;28;20035;-72
2021/01/16 12:12:50;;;;;;;18.15;6.95;;;0.50;99.90;;;;;;4946891;28;20038;-73
2021/01/16 12:15:24;;;;;;;13.35;7.10;;;0.60;99.90;;;;;;4956466;28;20141;-73
2021/01/16 12:17:51;;;;;;;12.98;7.55;;;0.60;99.90;;;;;;4940411;28;20039;-72
2021/01/16 12:20:19;;;;;;;12.70;6.93;;;0.60;99.90;;;;;;4972818;28;20065;-74
2021/01/16 12:22:49;;;;;;;19.02;8.65;;;0.60;99.90;;;;;;4949815;28;20794;-73
2021/01/16 12:25:17;;;;;;;13.35;6.85;;;0.50;99.90;;;;;;4959106;28;20026;-73
2021/01/16 12:27:49;;;;;;;20.25;9.48;;;0.40;99.90;;;;;;4958366;28;20571;-73
2021/01/16 12:30:17;;;;;;;17.88;8.50;;;0.40;99.90;;;;;;4960255;28;20061;-73
2021/01/16 12:32:43;;;;;;;13.93;7.93;;;0.40;99.90;;;;;;4958386;28;20834;-72
2021/01/16 12:35:10;;;;;;;15.77;8.07;;;0.50;99.90;;;;;;4945451;28;20031;-72
2021/01/16 12:37:37;;;;;;;16.35;8.48;;;0.40;99.90;;;;;;4957593;28;20069;-72
2021/01/16 12:40:24;;;;;;;17.73;7.18;;;0.40;99.90;;;;;;4952419;28;20039;-72
2021/01/16 12:42:50;;;;;;;11.80;6.63;;;0.40;99.90;;;;;;4951939;28;20036;-72
2021/01/16 12:45:19;;;;;;;16.13;7.15;;;0.40;99.90;;;;;;4951382;28;20105;-72
2021/01/16 12:47:48;;;;;;;18.25;7.10;;;0.30;99.90;;;;;;4971842;28;20488;-72
2021/01/16 12:50:14;;;;;;;17.17;7.72;;;0.40;99.90;;;;;;4954456;28;20070;-73
2021/01/16 12:52:50;;;;;;;17.05;7.63;;;0.30;99.90;;;;;;4954168;28;20451;-72
2021/01/16 12:55:22;;;;;;;15.75;7.18;;;0.40;99.90;;;;;;4958100;28;20897;-72
2021/01/16 12:57:49;;;;;;;17.90;8.15;;;0.40;99.90;;;;;;4951990;28;20042;-72
2021/01/16 13:00:23;;;;;;;25.92;9.38;;;0.40;99.90;;;;;;4970874;28;20125;-72